createdAt,value
2019-05-19T00:00:29.974Z,99793.89
2019-05-19T00:02:59.568Z,99795.57
2019-05-19T00:05:29.200Z,99810.59
2019-05-19T00:07:58.744Z,99801.38
2019-05-19T00:10:28.343Z,99804.99
2019-05-19T00:12:57.878Z,99798.77
2019-05-19T00:15:27.426Z,99794.48
2019-05-19T00:17:57.038Z,99804.88
2019-05-19T00:20:26.585Z,99798.53
2019-05-19T00:22:56.175Z,99796.13
2019-05-19T00:25:25.749Z,99798.65
2019-05-19T00:27:55.282Z,99801.13
2019-05-19T00:30:24.824Z,99805.69
2019-05-19T00:32:54.368Z,99798.51
2019-05-19T00:35:24.248Z,99793.23
2019-05-19T00:37:53.851Z,99795.52
2019-05-19T00:40:23.399Z,99789.18
2019-05-19T00:42:52.954Z,99781.15
2019-05-19T00:45:22.677Z,99776.36
2019-05-19T00:47:52.230Z,99769.31
2019-05-19T00:50:21.817Z,99771.22
2019-05-19T00:52:51.390Z,99772.16
2019-05-19T00:55:21.174Z,99767.88
2019-05-19T00:57:52.122Z,99770.04
2019-05-19T01:00:22.157Z,99774.45
2019-05-19T01:02:51.710Z,99764.17
2019-05-19T01:05:21.252Z,99770.14
2019-05-19T01:07:50.832Z,99765.02
2019-05-19T01:10:20.564Z,99763.95
2019-05-19T01:12:50.198Z,99766.69
2019-05-19T01:15:20.151Z,99763.72
2019-05-19T01:17:49.693Z,99760.86
2019-05-19T01:20:19.878Z,99753.09
2019-05-19T01:22:49.416Z,99760.26
2019-05-19T01:25:19.222Z,99763.59
2019-05-19T01:27:48.779Z,99758.31
2019-05-19T01:30:18.954Z,99752.34
2019-05-19T01:32:48.498Z,99745.53
2019-05-19T01:35:18.056Z,99755.77
2019-05-19T01:37:47.688Z,99756.71
2019-05-19T01:40:17.658Z,99757.83
2019-05-19T01:42:47.209Z,99765.02
2019-05-19T01:45:17.818Z,99761.02
2019-05-19T01:47:47.388Z,99762.56
2019-05-19T01:50:18.652Z,99760.88
2019-05-19T01:52:48.703Z,99758.00
2019-05-19T01:55:19.195Z,99760.61
2019-05-19T01:57:48.773Z,99756.89
2019-05-19T02:00:18.679Z,99756.87
2019-05-19T02:02:48.207Z,99760.47
2019-05-19T02:05:18.097Z,99756.03
2019-05-19T02:07:47.629Z,99753.06
2019-05-19T02:10:17.692Z,99744.47
2019-05-19T02:12:47.250Z,99748.23
2019-05-19T02:15:17.376Z,99749.69
2019-05-19T02:17:46.923Z,99749.81
2019-05-19T02:20:31.972Z,99748.75
2019-05-19T02:22:49.481Z,99742.91
2019-05-19T02:25:20.241Z,99740.41
2019-05-19T02:27:49.795Z,99750.91
2019-05-19T02:30:20.291Z,99756.41
2019-05-19T02:32:49.846Z,99754.25
2019-05-19T02:35:19.403Z,99752.22
2019-05-19T02:37:48.975Z,99748.75
2019-05-19T02:40:18.976Z,99749.81
2019-05-19T02:42:50.793Z,99746.56
2019-05-19T02:45:20.424Z,99745.13
2019-05-19T02:47:52.030Z,99746.06
2019-05-19T02:50:22.088Z,99737.10
2019-05-19T02:52:52.783Z,99744.53
2019-05-19T02:55:22.966Z,99744.31
2019-05-19T02:57:53.573Z,99743.72
2019-05-19T03:00:39.707Z,99741.56
2019-05-19T03:03:09.456Z,99739.60
2019-05-19T03:05:39.556Z,99739.57
2019-05-19T03:08:09.121Z,99732.60
2019-05-19T03:10:38.662Z,99733.54
2019-05-19T03:13:08.269Z,99735.82
2019-05-19T03:15:37.755Z,99732.82
2019-05-19T03:18:07.695Z,99742.50
2019-05-19T03:20:37.241Z,99735.95
2019-05-19T03:23:06.789Z,99734.84
2019-05-19T03:25:36.363Z,99738.66
2019-05-19T03:28:06.082Z,99741.28
2019-05-19T03:30:37.284Z,99736.63
2019-05-19T03:33:17.146Z,99740.91
2019-05-19T03:35:46.696Z,99744.84
2019-05-19T03:38:16.261Z,99738.88
2019-05-19T03:40:45.862Z,99744.69
2019-05-19T03:43:15.442Z,99738.25
2019-05-19T03:45:44.999Z,99739.90
2019-05-19T03:48:14.540Z,99738.80
2019-05-19T03:50:44.106Z,99739.77
2019-05-19T03:53:13.642Z,99744.34
2019-05-19T03:55:43.195Z,99742.31
2019-05-19T03:58:12.834Z,99743.38
2019-05-19T04:00:42.402Z,99737.62
2019-05-19T04:03:11.928Z,99738.59
2019-05-19T04:05:41.768Z,99737.83
2019-05-19T04:08:11.361Z,99748.32
2019-05-19T04:10:40.983Z,99743.29
2019-05-19T04:13:10.543Z,99736.66
2019-05-19T04:15:40.085Z,99742.94
2019-05-19T04:18:09.959Z,99740.50
2019-05-19T04:20:39.520Z,99740.84
2019-05-19T04:23:09.142Z,99737.88
2019-05-19T04:25:38.719Z,99744.52
2019-05-19T04:28:08.278Z,99734.63
2019-05-19T04:30:37.835Z,99740.71
2019-05-19T04:33:07.363Z,99736.41
2019-05-19T04:35:36.949Z,99737.41
2019-05-19T04:38:06.479Z,99738.47
2019-05-19T04:40:36.031Z,99739.77
2019-05-19T04:43:05.956Z,99742.56
2019-05-19T04:45:35.852Z,99737.92
2019-05-19T04:48:09.459Z,99739.40
2019-05-19T04:50:36.803Z,99743.13
2019-05-19T04:53:06.363Z,99742.56
2019-05-19T04:55:35.904Z,99742.14
2019-05-19T04:58:05.818Z,99747.30
2019-05-19T05:00:35.370Z,99748.41
2019-05-19T05:03:04.966Z,99750.81
2019-05-19T05:05:34.541Z,99751.45
2019-05-19T05:08:04.081Z,99749.80
2019-05-19T05:10:33.663Z,99753.30
2019-05-19T05:13:03.237Z,99751.65
2019-05-19T05:15:32.776Z,99754.06
2019-05-19T05:18:02.340Z,99746.81
2019-05-19T05:20:31.896Z,99750.63
2019-05-19T05:23:02.385Z,99754.72
2019-05-19T05:25:31.926Z,99754.28
2019-05-19T05:28:01.514Z,99751.69
2019-05-19T05:30:31.086Z,99749.87
2019-05-19T05:33:00.663Z,99754.59
2019-05-19T05:35:30.225Z,99758.44
2019-05-19T05:37:59.771Z,99753.70
2019-05-19T05:40:29.648Z,99750.89
2019-05-19T05:42:59.215Z,99754.25
2019-05-19T05:45:28.906Z,99749.39
2019-05-19T05:47:58.489Z,99751.91
2019-05-19T05:50:28.040Z,99752.36
2019-05-19T05:52:57.907Z,99741.75
2019-05-19T05:55:27.460Z,99744.53
2019-05-19T05:57:57.019Z,99742.98
2019-05-19T06:00:26.602Z,99742.16
2019-05-19T06:02:56.146Z,99747.53
2019-05-19T06:05:25.692Z,99751.83
2019-05-19T06:07:55.239Z,99745.36
2019-05-19T06:10:24.906Z,99748.20
2019-05-19T06:12:54.436Z,99748.56
2019-05-19T06:15:24.029Z,99747.00
2019-05-19T06:17:53.609Z,99742.42
2019-05-19T06:20:23.162Z,99740.72
2019-05-19T06:22:56.883Z,99746.42
2019-05-19T06:25:24.185Z,99744.47
2019-05-19T06:27:53.707Z,99736.69
2019-05-19T06:30:23.382Z,99738.27
2019-05-19T06:32:54.624Z,99742.47
2019-05-19T06:35:24.237Z,99745.11
2019-05-19T06:37:53.780Z,99742.70
2019-05-19T06:40:24.275Z,99739.95
2019-05-19T06:42:53.874Z,99746.79
2019-05-19T06:45:23.585Z,99748.73
2019-05-19T06:47:53.174Z,99748.73
2019-05-19T06:50:22.878Z,99747.76
2019-05-19T06:52:52.777Z,99746.44
2019-05-19T06:55:22.467Z,99744.79
2019-05-19T06:57:51.953Z,99741.65
2019-05-19T07:00:22.072Z,99736.66
2019-05-19T07:02:51.619Z,99743.58
2019-05-19T07:05:21.174Z,99736.75
2019-05-19T07:07:50.750Z,99742.59
2019-05-19T07:10:20.647Z,99738.70
2019-05-19T07:12:50.201Z,99736.04
2019-05-19T07:15:20.029Z,99735.29
2019-05-19T07:17:49.656Z,99735.56
2019-05-19T07:20:19.606Z,99727.84
2019-05-19T07:22:49.200Z,99733.38
2019-05-19T07:25:18.759Z,99732.89
2019-05-19T07:27:49.237Z,99732.86
2019-05-19T07:30:19.289Z,99735.08
2019-05-19T07:32:48.857Z,99727.40
2019-05-19T07:35:18.698Z,99732.89
2019-05-19T07:37:48.746Z,99732.34
2019-05-19T07:40:18.457Z,99729.33
2019-05-19T07:42:48.099Z,99719.94
2019-05-19T07:45:18.100Z,99722.59
2019-05-19T07:47:47.708Z,99724.87
2019-05-19T07:50:17.308Z,99716.63
2019-05-19T07:52:46.901Z,99716.36
2019-05-19T07:55:16.682Z,99711.22
2019-05-19T07:57:46.285Z,99714.05
2019-05-19T08:00:16.695Z,99709.41
2019-05-19T08:02:47.917Z,99715.67
2019-05-19T08:05:17.701Z,99708.09
2019-05-19T08:07:47.328Z,99706.09
2019-05-19T08:10:17.217Z,99708.34
2019-05-19T08:12:53.943Z,99702.94
2019-05-19T08:15:23.671Z,99702.02
2019-05-19T08:17:53.233Z,99698.75
2019-05-19T08:20:23.121Z,99700.91
2019-05-19T08:22:52.682Z,99695.66
2019-05-19T08:25:22.297Z,99702.55
2019-05-19T08:27:52.091Z,99708.72
2019-05-19T08:30:22.404Z,99702.31
2019-05-19T08:32:52.162Z,99696.52
2019-05-19T08:35:21.830Z,99701.65
2019-05-19T08:37:52.797Z,99702.44
2019-05-19T08:40:26.067Z,99702.47
2019-05-19T08:42:55.724Z,99705.50
2019-05-19T08:45:25.718Z,99705.01
2019-05-19T08:47:55.285Z,99700.56
2019-05-19T08:50:26.680Z,99703.58
2019-05-19T08:52:56.393Z,99697.92
2019-05-19T08:55:26.358Z,99703.70
2019-05-19T08:57:56.975Z,99703.90
2019-05-19T09:00:26.606Z,99702.02
2019-05-19T09:02:56.216Z,99698.88
2019-05-19T09:05:25.932Z,99700.28
2019-05-19T09:07:55.681Z,99696.41
2019-05-19T09:10:25.223Z,99693.70
2019-05-19T09:12:54.777Z,99691.28
2019-05-19T09:15:25.762Z,99703.58
2019-05-19T09:17:55.499Z,99698.31
2019-05-19T09:20:25.176Z,99697.90
2019-05-19T09:22:54.867Z,99690.08
2019-05-19T09:25:24.495Z,99692.59
2019-05-19T09:27:54.065Z,99687.31
2019-05-19T09:30:24.877Z,99689.72
2019-05-19T09:32:54.451Z,99682.73
2019-05-19T09:35:24.291Z,99684.17
2019-05-19T09:37:55.234Z,99682.35
2019-05-19T09:40:26.728Z,99680.85
2019-05-19T09:42:56.272Z,99681.20
2019-05-19T09:45:26.630Z,99678.12
2019-05-19T09:47:56.198Z,99685.27
2019-05-19T09:50:25.799Z,99690.29
2019-05-19T09:52:56.745Z,99682.47
2019-05-19T09:55:26.332Z,99685.30
2019-05-19T09:57:55.996Z,99677.67
2019-05-19T10:00:25.771Z,99677.33
2019-05-19T10:02:55.384Z,99667.66
2019-05-19T10:05:25.014Z,99672.31
2019-05-19T10:07:54.587Z,99676.13
2019-05-19T10:10:39.889Z,99666.66
2019-05-19T10:13:09.695Z,99669.86
2019-05-19T10:15:39.386Z,99663.19
2019-05-19T10:18:09.302Z,99663.70
2019-05-19T10:20:38.929Z,99660.22
2019-05-19T10:23:08.834Z,99657.73
2019-05-19T10:25:40.202Z,99655.27
2019-05-19T10:28:09.871Z,99648.47
2019-05-19T10:30:39.422Z,99649.92
2019-05-19T10:33:09.385Z,99643.76
2019-05-19T10:35:40.654Z,99642.44
2019-05-19T10:38:10.220Z,99643.27
2019-05-19T10:40:39.755Z,99645.63
2019-05-19T10:43:09.499Z,99643.34
2019-05-19T10:45:40.210Z,99634.04
2019-05-19T10:48:10.153Z,99640.86
2019-05-19T10:50:41.436Z,99644.38
2019-05-19T10:53:11.111Z,99638.72
2019-05-19T10:55:40.649Z,99639.54
2019-05-19T10:58:10.484Z,99637.88
2019-05-19T11:00:40.242Z,99634.05
2019-05-19T11:03:10.261Z,99628.40
2019-05-19T11:05:40.011Z,99625.55
2019-05-19T11:08:11.704Z,99624.91
2019-05-19T11:10:41.711Z,99615.47
2019-05-19T11:13:11.305Z,99610.80
2019-05-19T11:15:40.849Z,99613.14
2019-05-19T11:18:10.775Z,99614.98
2019-05-19T11:20:40.335Z,99614.31
2019-05-19T11:23:12.157Z,99612.33
2019-05-19T11:25:51.535Z,99614.97
2019-05-19T11:28:14.879Z,99614.10
2019-05-19T11:30:44.489Z,99615.24
2019-05-19T11:33:14.374Z,99612.27
2019-05-19T11:35:44.010Z,99611.24
2019-05-19T11:38:13.628Z,99614.92
2019-05-19T11:40:43.370Z,99610.28
2019-05-19T11:43:13.011Z,99613.91
2019-05-19T11:45:42.655Z,99616.23
2019-05-19T11:48:12.272Z,99611.77
2019-05-19T11:50:42.319Z,99612.22
2019-05-19T11:53:12.112Z,99600.09
2019-05-19T11:55:41.718Z,99602.06
2019-05-19T11:58:11.969Z,99603.87
2019-05-19T12:00:41.600Z,99606.88
2019-05-19T12:03:13.853Z,99603.19
2019-05-19T12:05:45.639Z,99605.84
2019-05-19T12:08:19.977Z,99601.85
2019-05-19T12:10:51.238Z,99601.70
2019-05-19T12:13:21.164Z,99604.55
2019-05-19T12:15:51.281Z,99605.23
2019-05-19T12:18:21.460Z,99600.94
2019-05-19T12:20:51.683Z,99604.45
2019-05-19T12:23:23.214Z,99611.29
2019-05-19T12:25:56.232Z,99608.97
2019-05-19T12:28:26.347Z,99609.30
2019-05-19T12:30:58.395Z,99611.81
2019-05-19T12:33:29.634Z,99617.28
2019-05-19T12:36:02.192Z,99626.09
2019-05-19T12:38:33.008Z,99616.47
2019-05-19T12:41:07.336Z,99622.63
2019-05-19T12:43:38.126Z,99623.29
2019-05-19T12:46:16.116Z,99621.45
2019-05-19T12:48:41.305Z,99625.95
2019-05-19T12:51:12.403Z,99629.62
2019-05-19T12:53:42.622Z,99627.45
2019-05-19T12:56:13.963Z,99624.62
2019-05-19T12:58:43.788Z,99634.59
2019-05-19T13:01:18.572Z,99634.59
2019-05-19T13:03:53.729Z,99639.93
2019-05-19T13:06:23.941Z,99638.57
2019-05-19T13:09:00.060Z,99652.19
2019-05-19T13:11:30.975Z,99653.82
2019-05-19T13:14:06.516Z,99661.27
2019-05-19T13:16:37.584Z,99670.39
2019-05-19T13:19:09.058Z,99682.27
2019-05-19T13:21:39.799Z,99682.01
2019-05-19T13:24:11.704Z,99685.56
2019-05-19T13:26:55.653Z,99692.42
2019-05-19T13:29:13.749Z,99679.23
2019-05-19T13:31:49.581Z,99678.95
2019-05-19T13:34:23.833Z,99697.50
2019-05-19T13:37:02.206Z,99701.53
2019-05-19T13:39:33.069Z,99703.73
2019-05-19T13:42:03.877Z,99698.77
2019-05-19T13:44:34.593Z,99709.29
2019-05-19T13:47:07.096Z,99711.37
2019-05-19T13:49:48.527Z,99710.44
2019-05-19T13:52:21.976Z,99721.03
2019-05-19T13:54:52.644Z,99732.92
2019-05-19T13:57:24.571Z,99730.16
2019-05-19T13:59:54.707Z,99734.84
2019-05-19T14:02:26.506Z,99739.26
2019-05-19T14:04:56.410Z,99735.09
2019-05-19T14:07:25.969Z,99738.22
2019-05-19T14:09:57.606Z,99739.52
2019-05-19T14:12:28.247Z,99744.34
2019-05-19T14:14:59.309Z,99749.92
2019-05-19T14:17:29.394Z,99748.20
2019-05-19T14:19:59.745Z,99753.43
2019-05-19T14:22:32.516Z,99760.33
2019-05-19T14:25:02.498Z,99761.13
2019-05-19T14:27:32.472Z,99768.67
2019-05-19T14:30:04.234Z,99765.67
2019-05-19T14:32:34.985Z,99767.03
2019-05-19T14:35:07.115Z,99776.69
2019-05-19T14:37:37.773Z,99769.16
2019-05-19T14:40:09.311Z,99764.02
2019-05-19T14:42:46.894Z,99752.80
2019-05-19T14:45:18.374Z,99754.33
2019-05-19T14:47:52.463Z,99747.98
2019-05-19T14:50:23.729Z,99736.56
2019-05-19T14:52:53.604Z,99733.76
2019-05-19T14:55:23.408Z,99727.50
2019-05-19T14:57:53.474Z,99717.55
2019-05-19T15:00:26.912Z,99701.97
2019-05-19T15:03:02.925Z,99700.69
2019-05-19T15:05:35.347Z,99691.13
2019-05-19T15:08:06.288Z,99669.64
2019-05-19T15:10:35.911Z,99665.91
2019-05-19T15:13:08.621Z,99667.78
2019-05-19T15:15:39.447Z,99665.42
2019-05-19T15:18:09.177Z,99661.45
2019-05-19T15:20:39.404Z,99657.35
2019-05-19T15:23:09.392Z,99656.61
2019-05-19T15:25:39.008Z,99657.13
2019-05-19T15:28:13.309Z,99655.87
2019-05-19T15:30:43.268Z,99654.73
2019-05-19T15:33:14.323Z,99650.86
2019-05-19T15:35:44.531Z,99644.67
2019-05-19T15:38:17.284Z,99640.92
2019-05-19T15:40:47.658Z,99631.84
2019-05-19T15:43:20.985Z,99629.95
2019-05-19T15:45:51.091Z,99632.60
2019-05-19T15:48:20.903Z,99631.44
2019-05-19T15:50:53.620Z,99615.09
2019-05-19T15:53:27.337Z,99616.30
2019-05-19T15:56:01.081Z,99611.55
2019-05-19T15:58:31.206Z,99601.97
2019-05-19T16:01:01.804Z,99600.66
2019-05-19T16:03:37.043Z,99603.78
2019-05-19T16:06:06.672Z,99603.89
2019-05-19T16:08:37.015Z,99596.13
2019-05-19T16:11:08.253Z,99596.13
2019-05-19T16:13:38.726Z,99591.70
2019-05-19T16:16:11.862Z,99584.47
2019-05-19T16:18:44.595Z,99581.68
2019-05-19T16:21:31.632Z,99575.91
2019-05-19T16:23:55.668Z,99581.11
2019-05-19T16:26:26.257Z,99571.89
2019-05-19T16:28:56.508Z,99575.25
2019-05-19T16:31:29.492Z,99580.11
2019-05-19T16:34:02.262Z,99581.44
2019-05-19T16:36:32.656Z,99584.47
2019-05-19T16:39:08.277Z,99591.20
2019-05-19T16:41:38.118Z,99575.56
2019-05-19T16:44:07.947Z,99566.41
2019-05-19T16:46:37.703Z,99572.55
2019-05-19T16:49:14.852Z,99577.19
2019-05-19T16:51:53.145Z,99576.38
2019-05-19T16:54:22.994Z,99568.39
2019-05-19T16:56:53.578Z,99558.93
2019-05-19T16:59:28.035Z,99555.98
2019-05-19T17:01:58.783Z,99559.65
2019-05-19T17:04:32.731Z,99561.95
2019-05-19T17:07:11.560Z,99555.98
2019-05-19T17:09:42.595Z,99554.84
2019-05-19T17:12:15.184Z,99555.86
2019-05-19T17:14:49.257Z,99549.41
2019-05-19T17:17:20.989Z,99552.25
2019-05-19T17:19:56.471Z,99559.05
2019-05-19T17:22:26.777Z,99551.77
2019-05-19T17:25:04.768Z,99544.84
2019-05-19T17:27:36.336Z,99538.75
2019-05-19T17:30:14.718Z,99540.08
2019-05-19T17:32:45.995Z,99538.27
2019-05-19T17:35:18.629Z,99533.14
2019-05-19T17:37:49.357Z,99537.11
2019-05-19T17:40:20.641Z,99538.92
2019-05-19T17:42:50.968Z,99539.59
2019-05-19T17:45:23.287Z,99539.28
2019-05-19T17:48:08.830Z,99544.41
2019-05-19T17:50:35.185Z,99547.23
2019-05-19T17:53:05.333Z,99551.20
2019-05-19T17:55:36.933Z,99551.20
2019-05-19T17:58:07.353Z,99555.50
2019-05-19T18:00:42.981Z,99555.00
2019-05-19T18:03:14.157Z,99566.94
2019-05-19T18:05:48.251Z,99568.73
2019-05-19T18:08:19.274Z,99575.05
2019-05-19T18:10:49.809Z,99574.36
2019-05-19T18:13:20.945Z,99574.34
2019-05-19T18:15:52.053Z,99580.62
2019-05-19T18:18:26.875Z,99579.64
2019-05-19T18:20:58.039Z,99577.97
2019-05-19T18:23:29.980Z,99581.63
2019-05-19T18:26:07.232Z,99589.22
2019-05-19T18:28:38.179Z,99593.69
2019-05-19T18:31:13.515Z,99592.83
2019-05-19T18:33:49.261Z,99605.73
2019-05-19T18:36:19.956Z,99612.45
2019-05-19T18:38:50.593Z,99622.21
2019-05-19T18:41:21.774Z,99626.95
2019-05-19T18:43:56.205Z,99631.70
2019-05-19T18:46:26.074Z,99639.66
2019-05-19T18:49:10.977Z,99637.30
2019-05-19T18:51:39.823Z,99644.90
2019-05-19T18:54:10.506Z,99642.03
2019-05-19T18:56:50.659Z,99646.85
2019-05-19T18:59:22.008Z,99650.60
2019-05-19T19:01:54.847Z,99655.35
2019-05-19T19:04:25.599Z,99654.88
2019-05-19T19:06:55.434Z,99654.14
2019-05-19T19:09:25.262Z,99657.18
2019-05-19T19:11:54.924Z,99660.41
2019-05-19T19:14:27.532Z,99655.93
2019-05-19T19:16:56.225Z,99662.48
2019-05-19T19:19:28.578Z,99657.48
2019-05-19T19:21:58.361Z,99659.45
2019-05-19T19:24:29.206Z,99652.28
2019-05-19T19:27:00.588Z,99654.06
2019-05-19T19:29:30.349Z,99660.80
2019-05-19T19:32:00.143Z,99671.06
2019-05-19T19:34:29.913Z,99679.14
2019-05-19T19:36:59.841Z,99691.53
2019-05-19T19:39:29.750Z,99697.47
2019-05-19T19:41:59.690Z,99697.42
2019-05-19T19:44:29.639Z,99700.36
2019-05-19T19:46:59.889Z,99697.84
2019-05-19T19:49:30.141Z,99702.33
2019-05-19T19:52:00.572Z,99700.64
2019-05-19T19:54:30.798Z,99709.42
2019-05-19T19:57:00.820Z,99708.31
2019-05-19T19:59:30.497Z,99710.36
2019-05-19T20:02:01.136Z,99711.90
2019-05-19T20:04:31.087Z,99711.42
2019-05-19T20:07:04.663Z,99725.00
2019-05-19T20:09:34.406Z,99725.00
2019-05-19T20:12:04.389Z,99736.98
2019-05-19T20:14:34.653Z,99738.14
2019-05-19T20:17:04.873Z,99736.01
2019-05-19T20:19:34.916Z,99741.50
2019-05-19T20:22:05.103Z,99744.91
2019-05-19T20:24:35.183Z,99748.89
2019-05-19T20:27:09.399Z,99752.50
2019-05-19T20:29:39.817Z,99751.20
2019-05-19T20:32:09.756Z,99748.63
2019-05-19T20:34:39.683Z,99754.30
2019-05-19T20:37:09.752Z,99749.17
2019-05-19T20:39:39.509Z,99764.94
2019-05-19T20:42:12.291Z,99758.97
2019-05-19T20:44:42.385Z,99767.64
2019-05-19T20:47:12.447Z,99763.41
2019-05-19T20:49:45.450Z,99765.63
2019-05-19T20:52:15.171Z,99767.25
2019-05-19T20:54:45.073Z,99757.64
2019-05-19T20:57:15.165Z,99755.75
2019-05-19T20:59:45.107Z,99753.33
2019-05-19T21:02:14.866Z,99744.63
2019-05-19T21:04:45.259Z,99746.00
2019-05-19T21:07:15.035Z,99745.05
2019-05-19T21:09:45.051Z,99745.95
2019-05-19T21:12:15.209Z,99738.08
2019-05-19T21:14:44.949Z,99736.55
2019-05-19T21:17:14.969Z,99730.94
2019-05-19T21:19:45.132Z,99731.47
2019-05-19T21:22:14.795Z,99737.17
2019-05-19T21:24:44.810Z,99729.25
2019-05-19T21:27:14.494Z,99731.05
2019-05-19T21:29:44.618Z,99733.00
2019-05-19T21:32:14.279Z,99737.34
2019-05-19T21:34:44.301Z,99737.55
2019-05-19T21:37:13.983Z,99735.27
2019-05-19T21:39:43.786Z,99733.74
2019-05-19T21:42:13.460Z,99739.28
2019-05-19T21:44:43.401Z,99737.39
2019-05-19T21:47:13.297Z,99733.95
2019-05-19T21:49:43.521Z,99733.84
2019-05-19T21:52:13.493Z,99740.50
2019-05-19T21:54:43.393Z,99730.73
2019-05-19T21:57:13.123Z,99745.87
2019-05-19T21:59:42.849Z,99750.81
2019-05-19T22:02:12.621Z,99748.87
2019-05-19T22:04:42.462Z,99751.77
2019-05-19T22:07:14.045Z,99753.20
2019-05-19T22:09:43.808Z,99741.84
2019-05-19T22:12:17.394Z,99738.62
2019-05-19T22:14:47.385Z,99740.47
2019-05-19T22:17:17.085Z,99746.84
2019-05-19T22:19:47.072Z,99750.14
2019-05-19T22:22:20.237Z,99749.70
2019-05-19T22:24:50.133Z,99746.75
2019-05-19T22:27:19.988Z,99713.46
2019-05-19T22:29:52.113Z,99744.55
2019-05-19T22:32:22.088Z,99742.86
2019-05-19T22:34:52.083Z,99735.21
2019-05-19T22:37:21.806Z,99736.20
2019-05-19T22:39:54.698Z,99741.25
2019-05-19T22:42:24.777Z,99736.23
2019-05-19T22:44:54.680Z,99740.55
2019-05-19T22:47:24.387Z,99741.62
2019-05-19T22:49:54.198Z,99734.80
2019-05-19T22:52:23.853Z,99746.33
2019-05-19T22:54:53.585Z,99741.09
2019-05-19T22:57:23.477Z,99724.83
2019-05-19T22:59:53.138Z,99723.29
2019-05-19T23:02:22.936Z,99728.78
2019-05-19T23:04:52.519Z,99733.35
2019-05-19T23:07:22.277Z,99725.88
2019-05-19T23:09:53.111Z,99718.36
2019-05-19T23:12:22.847Z,99717.99
2019-05-19T23:14:55.886Z,99718.84
2019-05-19T23:17:25.882Z,99717.55
2019-05-19T23:19:55.589Z,99725.70
2019-05-19T23:22:28.470Z,99724.46
2019-05-19T23:24:58.269Z,99725.45
2019-05-19T23:27:32.080Z,99714.94
2019-05-19T23:30:01.840Z,99721.52
2019-05-19T23:32:31.390Z,99720.70
2019-05-19T23:35:01.244Z,99717.16
2019-05-19T23:37:31.242Z,99713.35
2019-05-19T23:40:01.452Z,99717.21
2019-05-19T23:42:35.245Z,99721.77
2019-05-19T23:45:08.427Z,99721.39
2019-05-19T23:47:38.272Z,99712.44
2019-05-19T23:50:08.325Z,99713.67
2019-05-19T23:52:40.449Z,99711.85
2019-05-19T23:55:10.294Z,99711.52
2019-05-19T23:57:43.292Z,99709.11
